Startpagina
METAR-TAF:

METAR-TAF

Vliegvelden :

Río Gallegos, Argentinië

breedte: 51-37S, lengte: 069-17W, hoogte: 20 m

Actueel weer

Dit bericht is 37 minuten geleden gemaakt, om 19:00 UTC
Wind 42 kt uit het westzuidwesten met uitschieters tot 55 kt
Temperatuur 16°C
Vochtigheid 29%
Druk 990 hPa
Zicht 10 km of meer
Weinig wolken op 3500 ft
Gebroken wolken op 20000 ft

METAR: SAWG 181900Z 25042G55KT 9999 FEW035 BKN200 16/M02 Q0990

Tijdstip: 16:37 (19:37 UTC)

Verwachting

Dit bericht is 2 uur en het 37 minuten geleden gemaakt, om 17:00 UTC
Verwachting geldig van 18 om 18 UTC tot 19 om 18 UTC
Wind 40 kt uit het westen met uitschieters tot 60 kt
Zicht 10 km of meer
Verspreide wolken op 3000 ft
Gebroken wolken op 7000 ft
Tijdelijke
van 19 om 00 UTC tot 19 om 08 UTC
Wind 35 kt uit het westzuidwesten met uitschieters tot 50 kt
Wijzigt naar
van 19 om 06 UTC tot 19 om 08 UTC
Weinig wolken op 3000 ft

TAF: SAWG 181700Z 1818/1918 27040G60KT 9999 SCT030 BKN070 TX19/1819Z TN07/1910Z TEMPO 1900/1908 25035G50KT BECMG 1906/1908 FEW030

Waarnemingen en weersverwachtingen van meer dan 4000 vliegvelden (METAR en TAF).

De beschikbare stations zijn de gele en rode punten op de kaart.

Ga met uw muis naar het station om de naam te zien.

Klik dan om waarnemingen en weersverwachtingen te zien.

kaart wijzigen: klik op de groene knoppen met een zwart kruis om in te zoomen, op de groene knop met een streepje om uit te zoomen of op de groene pijlen voor aangrenzende kaarten.


METAR-TAF: